sensor_id;sensor_type;location;lat;lon;timestamp;temperature;humidity
16767;DHT22;8501;49.926;8.404;2023-04-25T00:00:32;10.40;99.90
16767;DHT22;8501;49.926;8.404;2023-04-25T00:02:57;10.40;99.90
16767;DHT22;8501;49.926;8.404;2023-04-25T00:05:25;10.40;99.90
16767;DHT22;8501;49.926;8.404;2023-04-25T00:07:51;10.40;99.90
16767;DHT22;8501;49.926;8.404;2023-04-25T00:10:17;10.40;99.90
16767;DHT22;8501;49.926;8.404;2023-04-25T00:12:42;10.30;99.90
16767;DHT22;8501;49.926;8.404;2023-04-25T00:15:08;10.40;99.90
16767;DHT22;8501;49.926;8.404;2023-04-25T00:17:34;10.40;99.90
16767;DHT22;8501;49.926;8.404;2023-04-25T00:20:01;10.40;99.90
16767;DHT22;8501;49.926;8.404;2023-04-25T00:22:29;10.30;99.90
16767;DHT22;8501;49.926;8.404;2023-04-25T00:24:55;10.30;99.90
16767;DHT22;8501;49.926;8.404;2023-04-25T00:27:22;10.30;99.90
16767;DHT22;8501;49.926;8.404;2023-04-25T00:29:48;10.30;99.90
16767;DHT22;8501;49.926;8.404;2023-04-25T00:32:13;10.20;99.90
16767;DHT22;8501;49.926;8.404;2023-04-25T00:34:39;10.20;99.90
16767;DHT22;8501;49.926;8.404;2023-04-25T00:37:05;10.30;99.90
16767;DHT22;8501;49.926;8.404;2023-04-25T00:39:31;10.30;99.90
16767;DHT22;8501;49.926;8.404;2023-04-25T00:41:57;10.20;99.90
16767;DHT22;8501;49.926;8.404;2023-04-25T00:44:24;10.20;99.90
16767;DHT22;8501;49.926;8.404;2023-04-25T00:46:50;10.10;99.90
16767;DHT22;8501;49.926;8.404;2023-04-25T00:49:16;10.20;99.90
16767;DHT22;8501;49.926;8.404;2023-04-25T00:51:43;10.20;99.90
16767;DHT22;8501;49.926;8.404;2023-04-25T00:54:13;10.10;99.90
16767;DHT22;8501;49.926;8.404;2023-04-25T00:56:39;10.20;99.90
16767;DHT22;8501;49.926;8.404;2023-04-25T00:59:05;10.20;99.90
16767;DHT22;8501;49.926;8.404;2023-04-25T01:01:31;10.20;99.90
16767;DHT22;8501;49.926;8.404;2023-04-25T01:03:59;10.20;99.90
16767;DHT22;8501;49.926;8.404;2023-04-25T01:06:25;10.20;99.90
16767;DHT22;8501;49.926;8.404;2023-04-25T01:08:51;10.20;99.90
16767;DHT22;8501;49.926;8.404;2023-04-25T01:11:17;10.20;99.90
16767;DHT22;8501;49.926;8.404;2023-04-25T01:13:43;10.30;99.90
16767;DHT22;8501;49.926;8.404;2023-04-25T01:16:09;10.20;99.90
16767;DHT22;8501;49.926;8.404;2023-04-25T01:18:36;10.20;99.90
16767;DHT22;8501;49.926;8.404;2023-04-25T01:21:07;10.20;99.90
16767;DHT22;8501;49.926;8.404;2023-04-25T01:23:34;10.20;99.90
16767;DHT22;8501;49.926;8.404;2023-04-25T01:26:00;10.20;99.90
16767;DHT22;8501;49.926;8.404;2023-04-25T01:28:26;10.10;99.90
16767;DHT22;8501;49.926;8.404;2023-04-25T01:30:53;10.10;99.90
16767;DHT22;8501;49.926;8.404;2023-04-25T01:33:19;10.10;99.90
16767;DHT22;8501;49.926;8.404;2023-04-25T01:35:46;10.00;99.90
16767;DHT22;8501;49.926;8.404;2023-04-25T01:38:12;10.10;99.90
16767;DHT22;8501;49.926;8.404;2023-04-25T01:40:39;10.10;99.90
16767;DHT22;8501;49.926;8.404;2023-04-25T01:43:05;10.20;99.90
16767;DHT22;8501;49.926;8.404;2023-04-25T01:45:31;10.10;99.90
16767;DHT22;8501;49.926;8.404;2023-04-25T01:47:57;10.00;99.90
16767;DHT22;8501;49.926;8.404;2023-04-25T01:50:25;10.00;99.90
16767;DHT22;8501;49.926;8.404;2023-04-25T01:52:50;10.00;99.90
16767;DHT22;8501;49.926;8.404;2023-04-25T01:55:16;10.00;99.90
16767;DHT22;8501;49.926;8.404;2023-04-25T01:57:42;9.90;99.90
16767;DHT22;8501;49.926;8.404;2023-04-25T02:00:08;9.90;99.90
16767;DHT22;8501;49.926;8.404;2023-04-25T02:02:34;9.90;99.90
16767;DHT22;8501;49.926;8.404;2023-04-25T02:05:00;9.80;99.90
16767;DHT22;8501;49.926;8.404;2023-04-25T02:07:26;9.90;99.90
16767;DHT22;8501;49.926;8.404;2023-04-25T02:09:52;9.90;99.90
16767;DHT22;8501;49.926;8.404;2023-04-25T02:12:18;9.90;99.90
16767;DHT22;8501;49.926;8.404;2023-04-25T02:14:43;9.90;99.90
16767;DHT22;8501;49.926;8.404;2023-04-25T02:17:09;9.90;99.90
16767;DHT22;8501;49.926;8.404;2023-04-25T02:19:34;9.90;99.90
16767;DHT22;8501;49.926;8.404;2023-04-25T02:22:00;9.90;99.90
16767;DHT22;8501;49.926;8.404;2023-04-25T02:24:26;9.90;99.90
16767;DHT22;8501;49.926;8.404;2023-04-25T02:26:53;9.90;99.90
16767;DHT22;8501;49.926;8.404;2023-04-25T02:29:20;9.90;99.90
16767;DHT22;8501;49.926;8.404;2023-04-25T02:31:46;9.90;99.90
16767;DHT22;8501;49.926;8.404;2023-04-25T02:34:11;9.80;99.90
16767;DHT22;8501;49.926;8.404;2023-04-25T02:36:37;9.80;99.90
16767;DHT22;8501;49.926;8.404;2023-04-25T02:39:02;9.80;99.90
16767;DHT22;8501;49.926;8.404;2023-04-25T02:41:28;9.70;99.90
16767;DHT22;8501;49.926;8.404;2023-04-25T02:43:54;9.80;99.90
16767;DHT22;8501;49.926;8.404;2023-04-25T02:46:20;9.80;99.90
16767;DHT22;8501;49.926;8.404;2023-04-25T02:48:45;9.80;99.90
16767;DHT22;8501;49.926;8.404;2023-04-25T02:51:11;9.70;99.90
16767;DHT22;8501;49.926;8.404;2023-04-25T02:53:36;9.70;99.90
16767;DHT22;8501;49.926;8.404;2023-04-25T02:56:02;9.80;99.90
16767;DHT22;8501;49.926;8.404;2023-04-25T02:58:28;9.80;99.90
16767;DHT22;8501;49.926;8.404;2023-04-25T03:00:53;9.80;99.90
16767;DHT22;8501;49.926;8.404;2023-04-25T03:03:20;9.90;99.90
16767;DHT22;8501;49.926;8.404;2023-04-25T03:05:50;9.80;99.90
16767;DHT22;8501;49.926;8.404;2023-04-25T03:08:17;9.80;99.90
16767;DHT22;8501;49.926;8.404;2023-04-25T03:10:43;9.80;99.90
16767;DHT22;8501;49.926;8.404;2023-04-25T03:13:08;9.80;99.90
16767;DHT22;8501;49.926;8.404;2023-04-25T03:15:35;9.70;99.90
16767;DHT22;8501;49.926;8.404;2023-04-25T03:18:01;9.80;99.90
16767;DHT22;8501;49.926;8.404;2023-04-25T03:20:27;9.80;99.90
16767;DHT22;8501;49.926;8.404;2023-04-25T03:22:53;9.70;99.90
16767;DHT22;8501;49.926;8.404;2023-04-25T03:25:18;9.70;99.90
16767;DHT22;8501;49.926;8.404;2023-04-25T03:27:44;9.70;99.90
16767;DHT22;8501;49.926;8.404;2023-04-25T03:30:09;9.70;99.90
16767;DHT22;8501;49.926;8.404;2023-04-25T03:32:35;9.70;99.90
16767;DHT22;8501;49.926;8.404;2023-04-25T03:35:01;9.70;99.90
16767;DHT22;8501;49.926;8.404;2023-04-25T03:37:26;9.70;99.90
16767;DHT22;8501;49.926;8.404;2023-04-25T03:39:52;9.60;99.90
16767;DHT22;8501;49.926;8.404;2023-04-25T03:42:17;9.70;99.90
16767;DHT22;8501;49.926;8.404;2023-04-25T03:44:43;9.70;99.90
16767;DHT22;8501;49.926;8.404;2023-04-25T03:47:09;9.80;99.90
16767;DHT22;8501;49.926;8.404;2023-04-25T03:49:35;9.70;99.90
16767;DHT22;8501;49.926;8.404;2023-04-25T03:52:01;9.70;99.90
16767;DHT22;8501;49.926;8.404;2023-04-25T03:54:27;9.70;99.90
16767;DHT22;8501;49.926;8.404;2023-04-25T03:56:52;9.70;99.90
16767;DHT22;8501;49.926;8.404;2023-04-25T03:59:18;9.70;99.90
16767;DHT22;8501;49.926;8.404;2023-04-25T04:01:43;9.80;99.90
16767;DHT22;8501;49.926;8.404;2023-04-25T04:04:09;9.80;99.90
16767;DHT22;8501;49.926;8.404;2023-04-25T04:06:34;9.80;99.90
16767;DHT22;8501;49.926;8.404;2023-04-25T04:09:02;9.80;99.90
16767;DHT22;8501;49.926;8.404;2023-04-25T04:11:27;9.70;99.90
16767;DHT22;8501;49.926;8.404;2023-04-25T04:13:53;9.70;99.90
16767;DHT22;8501;49.926;8.404;2023-04-25T04:16:18;9.80;99.90
16767;DHT22;8501;49.926;8.404;2023-04-25T04:18:45;9.70;99.90
16767;DHT22;8501;49.926;8.404;2023-04-25T04:21:10;9.70;99.90
16767;DHT22;8501;49.926;8.404;2023-04-25T04:23:36;9.70;99.90
16767;DHT22;8501;49.926;8.404;2023-04-25T04:26:02;9.70;99.90
16767;DHT22;8501;49.926;8.404;2023-04-25T04:28:28;9.70;99.90
16767;DHT22;8501;49.926;8.404;2023-04-25T04:30:53;9.70;99.90
16767;DHT22;8501;49.926;8.404;2023-04-25T04:33:19;9.70;99.90
16767;DHT22;8501;49.926;8.404;2023-04-25T04:35:45;9.50;99.90
16767;DHT22;8501;49.926;8.404;2023-04-25T04:38:12;9.60;99.90
16767;DHT22;8501;49.926;8.404;2023-04-25T04:40:40;9.60;99.90
16767;DHT22;8501;49.926;8.404;2023-04-25T04:43:07;9.50;99.90
16767;DHT22;8501;49.926;8.404;2023-04-25T04:45:34;9.60;99.90
16767;DHT22;8501;49.926;8.404;2023-04-25T04:47:59;9.60;99.90
16767;DHT22;8501;49.926;8.404;2023-04-25T04:50:25;9.60;99.90
16767;DHT22;8501;49.926;8.404;2023-04-25T04:52:51;9.70;99.90
16767;DHT22;8501;49.926;8.404;2023-04-25T04:55:17;9.70;99.90
16767;DHT22;8501;49.926;8.404;2023-04-25T04:57:43;9.60;99.90
16767;DHT22;8501;49.926;8.404;2023-04-25T05:00:09;9.60;99.90
16767;DHT22;8501;49.926;8.404;2023-04-25T05:02:40;9.50;99.90
16767;DHT22;8501;49.926;8.404;2023-04-25T05:05:05;9.50;99.90
16767;DHT22;8501;49.926;8.404;2023-04-25T05:07:31;9.50;99.90
16767;DHT22;8501;49.926;8.404;2023-04-25T05:09:57;9.50;99.90
16767;DHT22;8501;49.926;8.404;2023-04-25T05:12:22;9.40;99.90
16767;DHT22;8501;49.926;8.404;2023-04-25T05:14:48;9.40;99.90
16767;DHT22;8501;49.926;8.404;2023-04-25T05:17:13;9.50;99.90
16767;DHT22;8501;49.926;8.404;2023-04-25T05:19:39;9.50;99.90
16767;DHT22;8501;49.926;8.404;2023-04-25T05:22:05;9.40;99.90
16767;DHT22;8501;49.926;8.404;2023-04-25T05:24:30;9.30;99.90
16767;DHT22;8501;49.926;8.404;2023-04-25T05:26:56;9.30;99.90
16767;DHT22;8501;49.926;8.404;2023-04-25T05:29:22;9.20;99.90
16767;DHT22;8501;49.926;8.404;2023-04-25T05:31:47;9.20;99.90
16767;DHT22;8501;49.926;8.404;2023-04-25T05:34:13;9.30;99.90
16767;DHT22;8501;49.926;8.404;2023-04-25T05:36:39;9.30;99.90
16767;DHT22;8501;49.926;8.404;2023-04-25T05:39:04;9.30;99.90
16767;DHT22;8501;49.926;8.404;2023-04-25T05:41:31;9.30;99.90
16767;DHT22;8501;49.926;8.404;2023-04-25T05:43:57;9.30;99.90
16767;DHT22;8501;49.926;8.404;2023-04-25T05:46:22;9.40;99.90
16767;DHT22;8501;49.926;8.404;2023-04-25T05:48:48;9.40;99.90
16767;DHT22;8501;49.926;8.404;2023-04-25T05:51:13;9.50;99.90
16767;DHT22;8501;49.926;8.404;2023-04-25T05:53:39;9.50;99.90
16767;DHT22;8501;49.926;8.404;2023-04-25T05:56:05;9.40;99.90
16767;DHT22;8501;49.926;8.404;2023-04-25T05:58:31;9.40;99.90
16767;DHT22;8501;49.926;8.404;2023-04-25T06:00:57;9.40;99.90
16767;DHT22;8501;49.926;8.404;2023-04-25T06:03:23;9.60;99.90
16767;DHT22;8501;49.926;8.404;2023-04-25T06:05:48;9.50;99.90
16767;DHT22;8501;49.926;8.404;2023-04-25T06:08:14;9.50;99.90
16767;DHT22;8501;49.926;8.404;2023-04-25T06:10:40;9.50;99.90
16767;DHT22;8501;49.926;8.404;2023-04-25T06:13:05;9.50;99.90
16767;DHT22;8501;49.926;8.404;2023-04-25T06:15:31;9.60;99.90
16767;DHT22;8501;49.926;8.404;2023-04-25T06:17:58;9.60;99.90
16767;DHT22;8501;49.926;8.404;2023-04-25T06:20:23;9.60;99.90
16767;DHT22;8501;49.926;8.404;2023-04-25T06:22:50;9.60;99.90
16767;DHT22;8501;49.926;8.404;2023-04-25T06:25:17;9.60;99.90
16767;DHT22;8501;49.926;8.404;2023-04-25T06:27:42;9.70;99.90
16767;DHT22;8501;49.926;8.404;2023-04-25T06:30:08;9.70;99.90
16767;DHT22;8501;49.926;8.404;2023-04-25T06:32:35;9.70;99.90
16767;DHT22;8501;49.926;8.404;2023-04-25T06:35:00;9.70;99.90
16767;DHT22;8501;49.926;8.404;2023-04-25T06:37:26;9.70;99.90
16767;DHT22;8501;49.926;8.404;2023-04-25T06:39:52;9.80;99.90
16767;DHT22;8501;49.926;8.404;2023-04-25T06:42:17;9.70;99.90
16767;DHT22;8501;49.926;8.404;2023-04-25T06:44:43;9.70;99.90
16767;DHT22;8501;49.926;8.404;2023-04-25T06:47:08;9.70;99.90
16767;DHT22;8501;49.926;8.404;2023-04-25T06:49:34;9.70;99.90
16767;DHT22;8501;49.926;8.404;2023-04-25T06:51:59;9.80;99.90
16767;DHT22;8501;49.926;8.404;2023-04-25T06:54:25;9.80;99.90
16767;DHT22;8501;49.926;8.404;2023-04-25T06:56:53;9.70;99.90
16767;DHT22;8501;49.926;8.404;2023-04-25T06:59:18;9.70;99.90
16767;DHT22;8501;49.926;8.404;2023-04-25T07:01:44;9.70;99.90
16767;DHT22;8501;49.926;8.404;2023-04-25T07:04:10;9.70;99.90
16767;DHT22;8501;49.926;8.404;2023-04-25T07:06:35;9.80;99.90
16767;DHT22;8501;49.926;8.404;2023-04-25T07:09:03;9.80;99.90
16767;DHT22;8501;49.926;8.404;2023-04-25T07:11:30;9.90;99.90
16767;DHT22;8501;49.926;8.404;2023-04-25T07:13:55;9.90;99.90
16767;DHT22;8501;49.926;8.404;2023-04-25T07:16:21;9.90;99.90
16767;DHT22;8501;49.926;8.404;2023-04-25T07:18:46;9.90;99.90
16767;DHT22;8501;49.926;8.404;2023-04-25T07:21:12;9.90;99.90
16767;DHT22;8501;49.926;8.404;2023-04-25T07:23:38;10.00;99.90
16767;DHT22;8501;49.926;8.404;2023-04-25T07:26:06;10.10;99.90
16767;DHT22;8501;49.926;8.404;2023-04-25T07:28:32;10.10;99.90
16767;DHT22;8501;49.926;8.404;2023-04-25T07:30:57;10.20;99.90
16767;DHT22;8501;49.926;8.404;2023-04-25T07:33:23;10.30;99.90
16767;DHT22;8501;49.926;8.404;2023-04-25T07:35:49;10.40;99.90
16767;DHT22;8501;49.926;8.404;2023-04-25T07:38:15;10.40;99.90
16767;DHT22;8501;49.926;8.404;2023-04-25T07:40:41;10.40;99.90
16767;DHT22;8501;49.926;8.404;2023-04-25T07:43:07;10.50;99.90
16767;DHT22;8501;49.926;8.404;2023-04-25T07:45:33;10.50;99.90
16767;DHT22;8501;49.926;8.404;2023-04-25T07:47:59;10.50;99.90
16767;DHT22;8501;49.926;8.404;2023-04-25T07:50:25;10.50;99.90
16767;DHT22;8501;49.926;8.404;2023-04-25T07:52:50;10.60;99.90
16767;DHT22;8501;49.926;8.404;2023-04-25T07:55:16;10.60;99.90
16767;DHT22;8501;49.926;8.404;2023-04-25T07:57:42;10.70;99.90
16767;DHT22;8501;49.926;8.404;2023-04-25T08:00:08;10.70;99.90
16767;DHT22;8501;49.926;8.404;2023-04-25T08:02:36;10.70;99.90
16767;DHT22;8501;49.926;8.404;2023-04-25T08:05:03;10.80;99.90
16767;DHT22;8501;49.926;8.404;2023-04-25T08:07:29;10.90;99.90
16767;DHT22;8501;49.926;8.404;2023-04-25T08:09:55;10.90;99.90
16767;DHT22;8501;49.926;8.404;2023-04-25T08:12:20;11.00;99.90
16767;DHT22;8501;49.926;8.404;2023-04-25T08:14:46;11.00;99.90
16767;DHT22;8501;49.926;8.404;2023-04-25T08:17:11;11.20;99.90
16767;DHT22;8501;49.926;8.404;2023-04-25T08:19:37;11.20;99.90
16767;DHT22;8501;49.926;8.404;2023-04-25T08:22:03;11.30;99.90
16767;DHT22;8501;49.926;8.404;2023-04-25T08:24:28;11.30;99.90
16767;DHT22;8501;49.926;8.404;2023-04-25T08:26:54;11.30;99.90
16767;DHT22;8501;49.926;8.404;2023-04-25T08:29:21;11.40;99.90
16767;DHT22;8501;49.926;8.404;2023-04-25T08:31:48;11.50;99.90
16767;DHT22;8501;49.926;8.404;2023-04-25T08:34:14;11.50;99.90
16767;DHT22;8501;49.926;8.404;2023-04-25T08:36:40;11.60;99.90
16767;DHT22;8501;49.926;8.404;2023-04-25T08:39:06;11.70;99.90
16767;DHT22;8501;49.926;8.404;2023-04-25T08:41:32;11.70;99.90
16767;DHT22;8501;49.926;8.404;2023-04-25T08:43:58;11.70;99.90
16767;DHT22;8501;49.926;8.404;2023-04-25T08:46:26;11.60;99.90
16767;DHT22;8501;49.926;8.404;2023-04-25T08:48:53;11.60;99.90
16767;DHT22;8501;49.926;8.404;2023-04-25T08:51:25;11.70;99.90
16767;DHT22;8501;49.926;8.404;2023-04-25T08:53:53;11.70;99.90
16767;DHT22;8501;49.926;8.404;2023-04-25T08:56:19;11.80;99.90
16767;DHT22;8501;49.926;8.404;2023-04-25T08:58:51;11.80;99.90
16767;DHT22;8501;49.926;8.404;2023-04-25T09:01:17;11.90;99.90
16767;DHT22;8501;49.926;8.404;2023-04-25T09:03:44;11.90;99.90
16767;DHT22;8501;49.926;8.404;2023-04-25T09:06:11;12.00;99.90
16767;DHT22;8501;49.926;8.404;2023-04-25T09:08:37;12.10;99.90
16767;DHT22;8501;49.926;8.404;2023-04-25T09:11:04;12.00;99.90
16767;DHT22;8501;49.926;8.404;2023-04-25T09:23:50;11.90;99.90
16767;DHT22;8501;49.926;8.404;2023-04-25T09:26:19;11.90;99.90
16767;DHT22;8501;49.926;8.404;2023-04-25T09:28:45;11.90;99.90
16767;DHT22;8501;49.926;8.404;2023-04-25T09:31:24;11.90;99.90
16767;DHT22;8501;49.926;8.404;2023-04-25T09:33:49;11.90;99.90
16767;DHT22;8501;49.926;8.404;2023-04-25T09:36:15;11.80;99.90
16767;DHT22;8501;49.926;8.404;2023-04-25T09:38:45;11.80;99.90
16767;DHT22;8501;49.926;8.404;2023-04-25T09:41:11;11.80;99.90
16767;DHT22;8501;49.926;8.404;2023-04-25T09:43:39;11.80;99.90
16767;DHT22;8501;49.926;8.404;2023-04-25T09:56:07;11.80;99.90
16767;DHT22;8501;49.926;8.404;2023-04-25T09:58:33;11.90;99.90
16767;DHT22;8501;49.926;8.404;2023-04-25T10:01:01;11.90;99.90
16767;DHT22;8501;49.926;8.404;2023-04-25T10:03:30;11.90;99.90
16767;DHT22;8501;49.926;8.404;2023-04-25T10:06:00;11.90;99.90
16767;DHT22;8501;49.926;8.404;2023-04-25T10:08:34;12.00;99.90
16767;DHT22;8501;49.926;8.404;2023-04-25T10:11:02;12.00;99.90
16767;DHT22;8501;49.926;8.404;2023-04-25T10:13:29;11.90;99.90
16767;DHT22;8501;49.926;8.404;2023-04-25T10:15:57;12.00;99.90
16767;DHT22;8501;49.926;8.404;2023-04-25T10:18:25;12.00;99.90
16767;DHT22;8501;49.926;8.404;2023-04-25T10:20:51;12.00;99.90
16767;DHT22;8501;49.926;8.404;2023-04-25T10:23:17;12.00;99.90
16767;DHT22;8501;49.926;8.404;2023-04-25T10:25:43;12.10;99.90
16767;DHT22;8501;49.926;8.404;2023-04-25T10:28:09;12.10;99.90
16767;DHT22;8501;49.926;8.404;2023-04-25T10:30:34;12.20;99.90
16767;DHT22;8501;49.926;8.404;2023-04-25T10:33:00;12.20;99.90
16767;DHT22;8501;49.926;8.404;2023-04-25T10:35:27;12.30;99.90
16767;DHT22;8501;49.926;8.404;2023-04-25T10:37:58;12.30;99.90
16767;DHT22;8501;49.926;8.404;2023-04-25T10:40:24;12.30;99.90
16767;DHT22;8501;49.926;8.404;2023-04-25T10:42:54;12.30;99.90
16767;DHT22;8501;49.926;8.404;2023-04-25T10:45:23;12.40;99.90
16767;DHT22;8501;49.926;8.404;2023-04-25T10:47:48;12.50;99.90
16767;DHT22;8501;49.926;8.404;2023-04-25T10:50:14;12.50;99.90
16767;DHT22;8501;49.926;8.404;2023-04-25T10:52:41;12.50;99.90
16767;DHT22;8501;49.926;8.404;2023-04-25T10:55:07;12.40;99.90
16767;DHT22;8501;49.926;8.404;2023-04-25T10:57:41;12.40;99.90
16767;DHT22;8501;49.926;8.404;2023-04-25T11:00:16;12.50;99.90
16767;DHT22;8501;49.926;8.404;2023-04-25T11:02:57;12.50;99.90
16767;DHT22;8501;49.926;8.404;2023-04-25T11:05:30;12.50;99.90
16767;DHT22;8501;49.926;8.404;2023-04-25T11:07:57;12.50;99.90
16767;DHT22;8501;49.926;8.404;2023-04-25T11:10:31;12.50;99.90
16767;DHT22;8501;49.926;8.404;2023-04-25T11:12:58;12.50;99.90
16767;DHT22;8501;49.926;8.404;2023-04-25T11:15:24;12.40;99.90
16767;DHT22;8501;49.926;8.404;2023-04-25T11:17:54;12.40;99.90
16767;DHT22;8501;49.926;8.404;2023-04-25T11:20:20;12.40;99.90
16767;DHT22;8501;49.926;8.404;2023-04-25T11:22:46;12.40;99.90
16767;DHT22;8501;49.926;8.404;2023-04-25T11:25:14;12.50;99.90
16767;DHT22;8501;49.926;8.404;2023-04-25T11:27:56;12.60;99.90
16767;DHT22;8501;49.926;8.404;2023-04-25T11:30:23;12.80;99.90
16767;DHT22;8501;49.926;8.404;2023-04-25T11:32:49;12.80;99.90
16767;DHT22;8501;49.926;8.404;2023-04-25T11:35:16;12.80;99.90
16767;DHT22;8501;49.926;8.404;2023-04-25T11:37:42;12.70;99.90
16767;DHT22;8501;49.926;8.404;2023-04-25T11:40:09;12.60;99.90
16767;DHT22;8501;49.926;8.404;2023-04-25T11:42:39;12.60;99.90
16767;DHT22;8501;49.926;8.404;2023-04-25T11:45:08;12.60;99.90
16767;DHT22;8501;49.926;8.404;2023-04-25T11:59:51;12.60;99.90
16767;DHT22;8501;49.926;8.404;2023-04-25T12:02:26;12.60;99.90
16767;DHT22;8501;49.926;8.404;2023-04-25T12:04:52;12.60;99.90
16767;DHT22;8501;49.926;8.404;2023-04-25T12:07:17;12.50;99.90
16767;DHT22;8501;49.926;8.404;2023-04-25T12:09:51;12.60;99.90
16767;DHT22;8501;49.926;8.404;2023-04-25T12:12:18;12.50;99.90
16767;DHT22;8501;49.926;8.404;2023-04-25T12:14:47;12.40;99.90
16767;DHT22;8501;49.926;8.404;2023-04-25T12:17:16;12.40;99.90
16767;DHT22;8501;49.926;8.404;2023-04-25T12:19:42;12.40;99.90
16767;DHT22;8501;49.926;8.404;2023-04-25T12:22:23;12.40;99.90
16767;DHT22;8501;49.926;8.404;2023-04-25T12:24:49;12.50;99.90
16767;DHT22;8501;49.926;8.404;2023-04-25T12:27:16;12.50;99.90
16767;DHT22;8501;49.926;8.404;2023-04-25T12:40:10;12.70;99.90
16767;DHT22;8501;49.926;8.404;2023-04-25T12:42:36;12.70;99.90
16767;DHT22;8501;49.926;8.404;2023-04-25T12:45:02;12.70;99.90
16767;DHT22;8501;49.926;8.404;2023-04-25T12:47:27;12.70;99.90
16767;DHT22;8501;49.926;8.404;2023-04-25T12:49:53;12.70;99.90
16767;DHT22;8501;49.926;8.404;2023-04-25T12:52:18;12.70;99.90
16767;DHT22;8501;49.926;8.404;2023-04-25T12:54:44;12.70;99.90
16767;DHT22;8501;49.926;8.404;2023-04-25T12:57:09;12.70;99.90
16767;DHT22;8501;49.926;8.404;2023-04-25T12:59:35;12.70;99.90
16767;DHT22;8501;49.926;8.404;2023-04-25T13:02:00;12.70;99.90
16767;DHT22;8501;49.926;8.404;2023-04-25T13:04:26;12.70;99.90
16767;DHT22;8501;49.926;8.404;2023-04-25T13:17:06;13.20;99.90
16767;DHT22;8501;49.926;8.404;2023-04-25T13:29:46;12.90;99.90
16767;DHT22;8501;49.926;8.404;2023-04-25T13:32:11;12.90;99.90
16767;DHT22;8501;49.926;8.404;2023-04-25T13:37:59;12.90;99.90
16767;DHT22;8501;49.926;8.404;2023-04-25T13:40:25;12.80;99.90
16767;DHT22;8501;49.926;8.404;2023-04-25T13:42:52;12.90;99.90
16767;DHT22;8501;49.926;8.404;2023-04-25T13:45:18;12.90;99.90
16767;DHT22;8501;49.926;8.404;2023-04-25T13:47:43;12.90;99.90
16767;DHT22;8501;49.926;8.404;2023-04-25T13:50:09;12.90;99.90
16767;DHT22;8501;49.926;8.404;2023-04-25T13:52:35;12.90;99.90
16767;DHT22;8501;49.926;8.404;2023-04-25T13:55:00;13.00;99.90
16767;DHT22;8501;49.926;8.404;2023-04-25T13:57:28;13.00;99.90
16767;DHT22;8501;49.926;8.404;2023-04-25T13:59:54;13.10;99.90
16767;DHT22;8501;49.926;8.404;2023-04-25T14:02:19;13.10;99.90
16767;DHT22;8501;49.926;8.404;2023-04-25T14:05:18;13.00;99.90
16767;DHT22;8501;49.926;8.404;2023-04-25T14:07:44;13.00;99.90
16767;DHT22;8501;49.926;8.404;2023-04-25T14:10:09;13.00;99.90
16767;DHT22;8501;49.926;8.404;2023-04-25T14:12:35;12.90;99.90
16767;DHT22;8501;49.926;8.404;2023-04-25T14:15:01;12.90;99.90
16767;DHT22;8501;49.926;8.404;2023-04-25T14:17:26;13.00;99.90
16767;DHT22;8501;49.926;8.404;2023-04-25T14:19:52;12.90;99.90
16767;DHT22;8501;49.926;8.404;2023-04-25T14:22:18;12.80;99.90
16767;DHT22;8501;49.926;8.404;2023-04-25T14:24:44;12.90;99.90
16767;DHT22;8501;49.926;8.404;2023-04-25T14:27:10;12.90;99.90
16767;DHT22;8501;49.926;8.404;2023-04-25T14:29:35;12.90;99.90
16767;DHT22;8501;49.926;8.404;2023-04-25T14:32:01;12.90;99.90
16767;DHT22;8501;49.926;8.404;2023-04-25T14:34:27;12.90;99.90
16767;DHT22;8501;49.926;8.404;2023-04-25T14:36:52;12.90;99.90
16767;DHT22;8501;49.926;8.404;2023-04-25T14:39:18;13.00;99.90
16767;DHT22;8501;49.926;8.404;2023-04-25T14:41:44;12.90;99.90
16767;DHT22;8501;49.926;8.404;2023-04-25T14:44:10;12.90;99.90
16767;DHT22;8501;49.926;8.404;2023-04-25T14:46:36;13.00;99.90
16767;DHT22;8501;49.926;8.404;2023-04-25T14:49:03;13.00;99.90
16767;DHT22;8501;49.926;8.404;2023-04-25T14:51:28;12.90;99.90
16767;DHT22;8501;49.926;8.404;2023-04-25T14:53:55;12.90;99.90
16767;DHT22;8501;49.926;8.404;2023-04-25T14:56:21;13.00;99.90
16767;DHT22;8501;49.926;8.404;2023-04-25T14:58:46;13.10;99.90
16767;DHT22;8501;49.926;8.404;2023-04-25T15:01:12;13.60;99.90
16767;DHT22;8501;49.926;8.404;2023-04-25T15:03:39;13.80;99.90
16767;DHT22;8501;49.926;8.404;2023-04-25T15:06:05;13.60;99.90
16767;DHT22;8501;49.926;8.404;2023-04-25T15:08:31;13.50;99.90
16767;DHT22;8501;49.926;8.404;2023-04-25T15:10:58;13.40;99.90
16767;DHT22;8501;49.926;8.404;2023-04-25T15:13:23;13.40;99.90
16767;DHT22;8501;49.926;8.404;2023-04-25T15:15:49;13.30;99.90
16767;DHT22;8501;49.926;8.404;2023-04-25T15:18:17;13.20;99.90
16767;DHT22;8501;49.926;8.404;2023-04-25T15:20:43;13.00;99.90
16767;DHT22;8501;49.926;8.404;2023-04-25T15:23:08;13.00;99.90
16767;DHT22;8501;49.926;8.404;2023-04-25T15:25:34;12.90;99.90
16767;DHT22;8501;49.926;8.404;2023-04-25T15:27:59;12.90;99.90
16767;DHT22;8501;49.926;8.404;2023-04-25T15:30:25;12.90;99.90
16767;DHT22;8501;49.926;8.404;2023-04-25T15:32:51;12.80;99.90
16767;DHT22;8501;49.926;8.404;2023-04-25T15:35:16;12.90;99.90
16767;DHT22;8501;49.926;8.404;2023-04-25T15:37:42;12.90;99.90
16767;DHT22;8501;49.926;8.404;2023-04-25T15:40:13;12.90;99.90
16767;DHT22;8501;49.926;8.404;2023-04-25T15:42:42;13.00;99.90
16767;DHT22;8501;49.926;8.404;2023-04-25T15:45:09;13.10;99.90
16767;DHT22;8501;49.926;8.404;2023-04-25T15:47:36;13.10;99.90
16767;DHT22;8501;49.926;8.404;2023-04-25T15:50:04;13.10;99.90
16767;DHT22;8501;49.926;8.404;2023-04-25T15:52:31;13.10;99.90
16767;DHT22;8501;49.926;8.404;2023-04-25T15:54:57;13.10;99.90
16767;DHT22;8501;49.926;8.404;2023-04-25T15:57:23;13.00;99.90
16767;DHT22;8501;49.926;8.404;2023-04-25T15:59:49;13.10;99.90
16767;DHT22;8501;49.926;8.404;2023-04-25T16:02:16;13.10;99.90
16767;DHT22;8501;49.926;8.404;2023-04-25T16:04:43;13.10;99.90
16767;DHT22;8501;49.926;8.404;2023-04-25T16:07:10;13.20;99.90
16767;DHT22;8501;49.926;8.404;2023-04-25T16:09:37;13.20;99.90
16767;DHT22;8501;49.926;8.404;2023-04-25T16:12:04;13.20;99.90
16767;DHT22;8501;49.926;8.404;2023-04-25T16:17:00;13.10;99.90
16767;DHT22;8501;49.926;8.404;2023-04-25T16:19:26;13.10;99.90
16767;DHT22;8501;49.926;8.404;2023-04-25T16:21:52;13.00;99.90
16767;DHT22;8501;49.926;8.404;2023-04-25T16:24:18;13.00;99.90
16767;DHT22;8501;49.926;8.404;2023-04-25T16:26:43;12.90;99.90
16767;DHT22;8501;49.926;8.404;2023-04-25T16:29:10;12.90;99.90
16767;DHT22;8501;49.926;8.404;2023-04-25T16:31:36;12.90;99.90
16767;DHT22;8501;49.926;8.404;2023-04-25T16:34:03;12.90;99.90
16767;DHT22;8501;49.926;8.404;2023-04-25T16:36:28;12.90;99.90
16767;DHT22;8501;49.926;8.404;2023-04-25T16:38:54;12.90;99.90
16767;DHT22;8501;49.926;8.404;2023-04-25T16:41:19;13.00;99.90
16767;DHT22;8501;49.926;8.404;2023-04-25T16:43:45;12.90;99.90
16767;DHT22;8501;49.926;8.404;2023-04-25T16:46:13;12.90;99.90
16767;DHT22;8501;49.926;8.404;2023-04-25T16:48:39;12.90;99.90
16767;DHT22;8501;49.926;8.404;2023-04-25T16:51:04;12.90;99.90
16767;DHT22;8501;49.926;8.404;2023-04-25T16:53:31;12.80;99.90
16767;DHT22;8501;49.926;8.404;2023-04-25T16:55:57;12.80;99.90